Latest Weather Observations for Gabo Island

IDN60801

Issued at 3:05 pm EST Friday 29 August 2014 (issued every 30 minutes, with the page automatically refreshed every 10 minutes)

About weather observations | Map of weather stations | Latest weather observations for NSW | Other Formats
Station Details ID: 084016 Name: GABO ISLAND LIGHTHOUSE Lat: -37.57 Lon: 149.92 Height: 15.2 m
Data from the previous 72 hours. | See also: Recent months at Gabo Island
Date/Time
EST
Temp
°C
App
Temp
°C
Dew
Point
Rel
Hum
%
Delta-T
°C
Wind Press
QNH
hPa
Press
MSL
hPa
Rain
since 9 am
mm
Dir
 
Spd
km/h
Gust
km/h
Spd
kts
Gust
kts
29/03:00pm 15.2 11.6 8.4 64 3.4 SE 17 22 9 12 1027.6 1027.6 0.2
29/02:30pm 15.1 12.4 8.8 66 3.2 SSE 13 19 7 10 1027.8 - 0.2
29/02:00pm 14.4 11.9 11.0 80 1.8 SW 15 19 8 10 1028.0 - 0.2
29/01:30pm 14.0 10.8 11.2 83 1.5 SW 19 22 10 12 1028.2 - 0.2
29/01:00pm 14.2 12.8 10.8 80 1.8 SSW 9 11 5 6 1028.3 - 0.2
29/12:30pm 13.8 11.4 11.5 86 1.2 SW 15 17 8 9 1028.4 - 0.2
29/12:00pm 13.7 10.5 11.4 86 1.2 SSW 19 20 10 11 1028.7 1028.7 0.2
29/11:30am 14.1 12.1 10.0 76 2.1 WSW 11 13 6 7 1028.7 - 0.0
29/11:00am 14.2 11.6 9.5 73 2.4 WSW 13 17 7 9 1028.8 - 0.0
29/10:30am 14.8 12.1 8.9 68 3.0 W 13 17 7 9 1028.9 - 0.0
29/10:00am 13.8 10.7 8.8 72 2.5 W 15 19 8 10 1029.0 - 0.0
29/09:30am 13.0 10.1 9.6 80 1.7 W 15 19 8 10 1029.1 - 0.0
29/09:00am 12.4 9.2 9.8 84 1.3 WNW 17 20 9 11 1029.2 1029.2 0.0
29/08:30am 12.2 9.1 10.2 87 1.0 WNW 17 20 9 11 1029.1 - 0.0
29/08:00am 11.1 7.8 9.7 91 0.7 W 17 19 9 10 1029.2 - 0.0
29/07:30am 10.1 6.7 9.3 95 0.4 WNW 17 19 9 10 1028.8 - 0.0
29/07:00am 9.1 5.5 8.5 96 0.3 WNW 17 19 9 10 1028.6 - 0.0
29/06:30am 9.1 5.5 8.3 95 0.4 WNW 17 19 9 10 1028.4 - 0.0
29/06:00am 9.3 5.8 8.7 96 0.3 W 17 19 9 10 1028.1 1028.0 0.0
29/05:30am 9.4 5.9 8.6 95 0.4 W 17 17 9 9 1027.8 - 0.0
29/05:00am 9.1 6.6 8.3 95 0.4 WNW 11 13 6 7 1027.8 - 0.0
29/04:30am 9.7 7.0 8.9 95 0.4 WNW 13 15 7 8 1027.8 - 0.0
29/04:00am 9.5 6.7 8.7 95 0.4 WNW 13 15 7 8 1027.8 - 0.0
29/03:30am 9.6 6.8 8.6 93 0.5 W 13 15 7 8 1027.7 - 0.0
29/03:00am 10.2 7.2 9.2 93 0.5 WNW 15 15 8 8 1027.6 1027.6 0.0
29/02:30am 10.7 8.1 9.5 92 0.6 WNW 13 15 7 8 1027.7 - 0.0
29/02:00am 9.6 6.8 8.6 93 0.5 W 13 13 7 7 1028.0 - 0.0
29/01:30am 10.4 9.0 9.4 93 0.5 W 7 9 4 5 1028.2 - 0.0
29/01:00am 10.8 9.5 9.8 93 0.5 W 7 9 4 5 1028.5 - 0.0
29/12:30am 11.1 10.0 10.1 94 0.5 W 6 7 3 4 1028.6 - 0.0
29/12:00am 11.3 11.4 10.1 92 0.6 NW 0 0 0 0 1028.7 1028.7 0.0
 
Date/Time
EST
Temp
°C
App
Temp
°C
Dew
Point
Rel
Hum
%
Delta-T
°C
Wind Press
QNH
hPa
Press
MSL
hPa
Rain
since 9 am
mm
Dir
 
Spd
km/h
Gust
km/h
Spd
kts
Gust
kts
28/11:30pm 11.2 10.5 10.0 92 0.6 NW 4 6 2 3 1028.8 - 0.0
28/11:00pm 11.0 9.6 9.4 90 0.8 N 7 9 4 5 1028.9 - 0.0
28/10:30pm 12.0 10.8 9.4 84 1.3 N 6 6 3 3 1029.1 - 0.0
28/10:00pm 11.3 10.2 10.1 92 0.6 N 6 7 3 4 1029.2 - 0.0
28/09:30pm 11.7 10.0 9.7 87 1.0 NNW 9 9 5 5 1029.4 - 0.0
28/09:00pm 11.3 9.2 9.7 90 0.8 N 11 11 6 6 1029.4 1029.4 0.0
28/08:30pm 11.4 9.3 9.8 90 0.8 N 11 13 6 7 1029.2 - 0.0
28/08:00pm 11.4 9.7 10.0 91 0.7 N 9 11 5 6 1029.1 - 0.0
28/07:30pm 12.9 10.8 11.0 88 1.0 NNE 13 17 7 9 1028.9 - 0.0
28/07:00pm 13.2 11.1 11.1 87 1.1 NNE 13 15 7 8 1028.8 - 0.0
28/06:30pm 14.2 11.7 11.2 82 1.6 NE 15 17 8 9 1028.7 - 0.0
28/06:00pm 14.1 11.9 10.9 81 1.7 NE 13 15 7 8 1028.6 1028.6 0.0
28/05:30pm 14.4 12.5 10.4 77 2.1 ENE 11 15 6 8 1028.5 - 0.0
28/05:00pm 14.9 13.3 10.3 74 2.4 ENE 9 11 5 6 1028.4 - 0.0
28/04:30pm 15.3 13.6 9.9 70 2.8 E 9 11 5 6 1028.2 - 0.0
28/04:00pm 15.6 13.8 9.4 66 3.2 E 9 11 5 6 1028.2 - 0.0
28/03:30pm 16.0 14.9 10.5 70 2.9 ESE 7 11 4 6 1028.3 - 0.0
28/03:00pm 16.1 15.0 10.8 71 2.8 ESE 7 9 4 5 1028.4 1028.4 0.0
28/02:30pm 15.6 14.4 10.4 71 2.7 ESE 7 11 4 6 1028.4 - 0.0
28/02:00pm 15.8 14.7 10.5 71 2.8 SE 7 11 4 6 1028.5 - 0.0
28/01:30pm 16.0 14.4 10.3 69 3.0 SSE 9 11 5 6 1028.6 - 0.0
28/01:00pm 16.0 14.5 10.5 70 2.9 S 9 11 5 6 1028.9 - 0.0
28/12:30pm 16.2 14.6 10.3 68 3.1 S 9 11 5 6 1029.3 - 0.0
28/12:00pm 15.2 13.3 8.9 66 3.2 SSW 9 11 5 6 1029.6 1029.8 0.0
28/11:30am 15.3 12.9 8.5 64 3.4 SSW 11 13 6 7 1029.8 - 0.0
28/11:00am 15.4 12.6 7.0 57 4.1 W 11 15 6 8 1030.1 - 0.0
28/10:30am 15.6 12.3 8.2 61 3.7 W 15 17 8 9 1030.3 - 0.0
28/10:00am 15.1 11.7 7.8 61 3.6 W 15 17 8 9 1030.3 - 0.0
28/09:30am 14.5 10.7 7.6 63 3.4 W 17 20 9 11 1030.2 - 0.0
28/09:00am 13.4 9.6 7.4 67 2.9 WNW 17 20 9 11 1030.2 1030.3 0.0
28/08:30am 12.3 8.0 7.1 70 2.5 WNW 19 22 10 12 1030.3 - 0.0
28/08:00am 11.5 7.4 8.0 79 1.7 WNW 19 20 10 11 1030.1 - 0.0
28/07:30am 11.1 6.9 7.3 77 1.8 WNW 19 20 10 11 1029.9 - 0.0
28/07:00am 9.9 5.7 7.6 85 1.1 WNW 19 22 10 12 1029.8 - 0.0
28/06:30am 9.7 5.5 7.4 85 1.1 WNW 19 22 10 12 1029.6 - 0.0
28/06:00am 9.6 5.2 7.5 87 1.0 WNW 20 20 11 11 1029.5 1029.5 0.0
28/05:30am 9.8 5.6 7.5 85 1.1 WNW 19 20 10 11 1029.2 - 0.0
28/05:00am 9.4 5.3 7.7 89 0.8 WNW 19 20 10 11 1029.0 - 0.0
28/04:30am 9.4 5.3 7.7 89 0.8 WNW 19 20 10 11 1028.8 - 0.0
28/04:00am 9.7 6.0 8.0 89 0.8 WNW 17 20 9 11 1028.6 - 0.0
28/03:30am 9.6 6.3 7.9 89 0.8 WNW 15 17 8 9 1028.5 - 0.0
28/03:00am 9.6 5.9 8.1 90 0.7 WNW 17 17 9 9 1028.6 1028.6 0.0
28/02:30am 9.7 6.4 8.2 90 0.7 WNW 15 17 8 9 1028.7 - 0.0
28/02:00am 10.4 7.5 8.3 87 1.0 WNW 13 15 7 8 1028.8 - 0.0
28/01:30am 10.2 7.0 8.3 88 0.9 WNW 15 17 8 9 1029.0 - 0.0
28/01:00am 11.7 9.8 6.8 72 2.3 NW 6 7 3 4 1029.1 - 0.0
28/12:30am 10.1 7.8 7.6 84 1.2 NW 9 13 5 7 1029.2 - 0.0
28/12:00am 10.4 7.7 8.8 90 0.8 WNW 13 15 7 8 1029.4 1029.4 0.0
 
Date/Time
EST
Temp
°C
App
Temp
°C
Dew
Point
Rel
Hum
%
Delta-T
°C
Wind Press
QNH
hPa
Press
MSL
hPa
Rain
since 9 am
mm
Dir
 
Spd
km/h
Gust
km/h
Spd
kts
Gust
kts
27/11:30pm 10.1 7.3 8.4 89 0.8 WNW 13 15 7 8 1029.4 - 0.0
27/11:00pm 10.6 10.2 8.3 86 1.1 CALM 0 2 0 1 1029.5 - 0.0
27/10:30pm 9.8 6.8 9.2 96 0.3 WNW 15 15 8 8 1029.6 - 0.0
27/10:00pm 11.9 10.0 7.5 74 2.1 N 7 9 4 5 1029.5 - 0.0
27/09:30pm 11.9 10.2 8.4 79 1.7 N 7 9 4 5 1029.6 - 0.0
27/09:00pm 11.9 9.9 7.3 73 2.2 N 7 7 4 4 1029.6 1029.7 0.0
27/08:30pm 11.8 9.9 7.6 75 2.0 N 7 9 4 5 1029.5 - 0.0
27/08:00pm 11.3 9.5 8.0 80 1.6 NNE 7 9 4 5 1029.4 - 0.0
27/07:30pm 12.2 10.5 8.5 78 1.8 NNE 7 9 4 5 1029.5 - 0.0
27/07:00pm 13.3 11.8 9.1 76 2.1 NNE 7 9 4 5 1029.4 - 0.0
27/06:30pm 14.7 12.8 9.2 69 2.8 E 9 11 5 6 1029.1 - 0.0
27/06:00pm 14.8 12.0 8.6 66 3.1 E 13 13 7 7 1029.0 1028.9 0.0
27/05:30pm 14.8 12.1 8.9 68 3.0 ENE 13 15 7 8 1028.7 - 0.0
27/05:00pm 15.3 12.0 8.1 62 3.6 ENE 15 17 8 9 1028.6 - 0.0
27/04:30pm 15.5 12.9 9.2 66 3.2 ENE 13 17 7 9 1028.4 - 0.0
27/04:00pm 16.1 13.8 9.1 63 3.6 ENE 11 13 6 7 1028.5 - 0.0
27/03:30pm 16.5 14.4 8.2 58 4.2 E 9 13 5 7 1028.5 - 0.0
27/03:00pm 16.7 14.2 8.4 58 4.2 E 11 13 6 7 1028.4 1028.4 0.0
27/02:30pm 16.7 13.5 8.6 59 4.1 ENE 15 17 8 9 1028.4 - 0.0
27/02:00pm 16.7 13.9 8.4 58 4.2 ENE 13 15 7 8 1028.6 - 0.0
27/01:30pm 16.7 13.4 7.9 56 4.4 ENE 15 17 8 9 1028.6 - 0.0
27/01:00pm 16.9 13.5 7.5 54 4.7 ENE 15 17 8 9 1028.7 - 0.0
27/12:30pm 16.9 13.4 7.2 52 4.8 ENE 15 17 8 9 1028.9 - 0.0
27/12:00pm 16.8 13.3 7.1 52 4.8 ENE 15 17 8 9 1029.2 1029.2 0.0
27/11:30am 17.0 14.0 7.8 54 4.6 ENE 13 15 7 8 1029.6 - 0.0
27/11:00am 16.9 13.6 8.2 56 4.4 ENE 15 17 8 9 1029.7 - 0.0
27/10:30am 16.5 13.2 8.2 58 4.2 E 15 19 8 10 1029.9 - 0.0
27/10:00am 16.2 12.5 8.0 58 4.1 ENE 17 20 9 11 1029.9 - 0.0
27/09:30am 16.0 11.5 6.3 52 4.7 E 19 20 10 11 1029.8 - 0.0
27/09:00am 15.9 12.5 5.9 51 4.8 E 13 15 7 8 1029.8 1030.0 0.0
27/08:30am 15.2 11.2 6.7 57 4.1 E 17 20 9 11 1029.7 - 0.0
27/08:00am 14.7 11.3 9.0 68 2.9 E 17 20 9 11 1029.5 - 0.0
27/07:30am 12.5 11.4 10.6 88 1.0 WNW 7 9 4 5 1029.3 - 0.0
27/07:00am 11.4 9.6 9.4 87 1.0 W 9 11 5 6 1029.0 - 0.0
27/06:30am 10.6 8.7 9.0 90 0.8 W 9 11 5 6 1028.8 - 0.0
27/06:00am 12.5 11.0 9.3 81 1.6 NNW 7 11 4 6 1028.7 1028.7 0.0
27/05:30am 13.3 10.5 8.7 73 2.3 NE 13 15 7 8 1028.5 - 0.0
27/05:00am 13.8 10.0 9.0 73 2.4 ENE 19 20 10 11 1028.7 - 0.0
27/04:30am 13.7 9.2 10.2 79 1.8 E 24 30 13 16 1028.8 - 0.0
27/04:00am 14.1 9.4 10.6 79 1.8 NE 26 28 14 15 1028.6 - 0.0
27/03:30am 14.5 10.1 9.0 69 2.8 ENE 22 26 12 14 1028.5 - 0.0
27/03:00am 14.0 10.1 9.3 73 2.4 ENE 20 26 11 14 1028.6 1028.6 0.0
27/02:30am 14.3 9.5 8.7 69 2.8 ENE 24 28 13 15 1028.7 - 0.0
27/02:00am 14.2 10.0 9.9 75 2.2 ENE 22 26 12 14 1028.7 - 0.0
27/01:30am 15.0 10.3 9.1 68 3.0 E 24 28 13 15 1028.9 - 0.0
27/01:00am 15.2 10.6 9.6 69 2.9 ENE 24 28 13 15 1029.0 - 0.0
27/12:30am 14.7 10.1 9.6 71 2.6 ENE 24 28 13 15 1029.1 - 0.0
27/12:00am 13.7 11.8 10.6 81 1.6 NNE 11 24 6 13 1029.2 1029.2 0.0
 
Date/Time
EST
Temp
°C
App
Temp
°C
Dew
Point
Rel
Hum
%
Delta-T
°C
Wind Press
QNH
hPa
Press
MSL
hPa
Rain
since 9 am
mm
Dir
 
Spd
km/h
Gust
km/h
Spd
kts
Gust
kts
26/11:30pm 13.6 11.2 10.1 79 1.8 N 13 17 7 9 1029.3 - 0.0
26/11:00pm 14.7 11.0 10.3 75 2.3 NE 20 22 11 12 1029.3 - 0.0
26/10:30pm 14.7 10.5 9.6 71 2.6 ENE 22 24 12 13 1029.3 - 0.0
26/10:00pm 14.8 10.2 9.5 70 2.7 ENE 24 26 13 14 1029.6 - 0.0
26/09:30pm 14.7 10.5 9.6 71 2.6 ENE 22 26 12 14 1029.6 - 0.0
26/09:00pm 14.9 10.4 10.1 73 2.5 ENE 24 28 13 15 1029.7 1029.8 0.0
26/08:30pm 14.9 10.0 9.9 72 2.6 ENE 26 30 14 16 1029.7 - 0.0
26/08:00pm 15.0 11.3 10.2 73 2.5 E 20 24 11 13 1029.6 - 0.0
26/07:30pm 15.0 11.4 10.6 75 2.3 E 20 26 11 14 1029.5 - 0.0
26/07:00pm 15.1 11.9 10.1 72 2.6 E 17 22 9 12 1029.4 - 0.0
26/06:30pm 15.1 11.6 10.1 72 2.6 E 19 22 10 12 1029.2 - 0.0
26/06:00pm 15.0 10.4 9.5 69 2.8 E 24 28 13 15 1028.9 1028.9 0.0
26/05:30pm 15.2 11.2 10.4 73 2.5 E 22 26 12 14 1028.6 - 0.0
26/05:00pm 15.6 11.3 10.9 73 2.5 ENE 24 28 13 15 1028.2 - 0.0
26/04:30pm 15.8 12.4 11.3 74 2.4 ENE 20 24 11 13 1028.1 - 0.0
26/04:00pm 15.6 11.8 11.1 74 2.4 ENE 22 26 12 14 1028.1 - 0.0
26/03:30pm 15.7 12.3 11.2 74 2.4 E 20 24 11 13 1028.1 - 0.0

Other Formats:

Comma delimited format used in spreadsheet applications
http://www.bom.gov.au/fwo/IDN60801/IDN60801.94933.axf

JavaScript Object Notation format (JSON) in row-major order
http://www.bom.gov.au/fwo/IDN60801/IDN60801.94933.json